sensor_id;sensor_type;location;lat;lon;timestamp;temperature;humidity
20380;DHT22;10349;48.666;8.948;2022-07-23T00:01:19;22.00;99.90
20380;DHT22;10349;48.666;8.948;2022-07-23T00:03:44;21.90;99.90
20380;DHT22;10349;48.666;8.948;2022-07-23T00:06:10;21.80;99.90
20380;DHT22;10349;48.666;8.948;2022-07-23T00:08:36;21.80;99.90
20380;DHT22;10349;48.666;8.948;2022-07-23T00:11:01;21.70;99.90
20380;DHT22;10349;48.666;8.948;2022-07-23T00:13:27;21.70;99.90
20380;DHT22;10349;48.666;8.948;2022-07-23T00:15:53;21.70;99.90
20380;DHT22;10349;48.666;8.948;2022-07-23T00:18:19;21.70;99.90
20380;DHT22;10349;48.666;8.948;2022-07-23T00:20:44;21.70;99.90
20380;DHT22;10349;48.666;8.948;2022-07-23T00:23:10;21.70;99.90
20380;DHT22;10349;48.666;8.948;2022-07-23T00:25:36;21.60;99.90
20380;DHT22;10349;48.666;8.948;2022-07-23T00:28:02;21.60;99.90
20380;DHT22;10349;48.666;8.948;2022-07-23T00:30:29;21.50;99.90
20380;DHT22;10349;48.666;8.948;2022-07-23T00:33:00;21.40;99.90
20380;DHT22;10349;48.666;8.948;2022-07-23T00:35:29;21.40;99.90
20380;DHT22;10349;48.666;8.948;2022-07-23T00:37:56;21.30;99.90
20380;DHT22;10349;48.666;8.948;2022-07-23T00:40:22;21.20;99.90
20380;DHT22;10349;48.666;8.948;2022-07-23T00:42:48;21.20;99.90
20380;DHT22;10349;48.666;8.948;2022-07-23T00:45:14;21.10;99.90
20380;DHT22;10349;48.666;8.948;2022-07-23T00:47:40;21.20;99.90
20380;DHT22;10349;48.666;8.948;2022-07-23T00:50:08;21.00;99.90
20380;DHT22;10349;48.666;8.948;2022-07-23T00:52:34;21.00;99.90
20380;DHT22;10349;48.666;8.948;2022-07-23T00:55:01;21.00;99.90
20380;DHT22;10349;48.666;8.948;2022-07-23T00:57:27;20.90;99.90
20380;DHT22;10349;48.666;8.948;2022-07-23T00:59:53;20.90;99.90
20380;DHT22;10349;48.666;8.948;2022-07-23T01:02:18;20.90;99.90
20380;DHT22;10349;48.666;8.948;2022-07-23T01:04:45;20.90;99.90
20380;DHT22;10349;48.666;8.948;2022-07-23T01:07:10;20.80;99.90
20380;DHT22;10349;48.666;8.948;2022-07-23T01:09:37;20.80;99.90
20380;DHT22;10349;48.666;8.948;2022-07-23T01:12:03;20.70;99.90
20380;DHT22;10349;48.666;8.948;2022-07-23T01:14:29;20.70;99.90
20380;DHT22;10349;48.666;8.948;2022-07-23T01:16:55;20.70;99.90
20380;DHT22;10349;48.666;8.948;2022-07-23T01:19:21;20.70;99.90
20380;DHT22;10349;48.666;8.948;2022-07-23T01:21:50;20.60;99.90
20380;DHT22;10349;48.666;8.948;2022-07-23T01:24:16;20.60;99.90
20380;DHT22;10349;48.666;8.948;2022-07-23T01:26:52;20.60;99.90
20380;DHT22;10349;48.666;8.948;2022-07-23T01:29:18;20.60;99.90
20380;DHT22;10349;48.666;8.948;2022-07-23T01:31:46;20.60;99.90
20380;DHT22;10349;48.666;8.948;2022-07-23T01:34:12;20.60;99.90
20380;DHT22;10349;48.666;8.948;2022-07-23T01:36:38;20.60;99.90
20380;DHT22;10349;48.666;8.948;2022-07-23T01:39:05;20.60;99.90
20380;DHT22;10349;48.666;8.948;2022-07-23T01:41:31;20.50;99.90
20380;DHT22;10349;48.666;8.948;2022-07-23T01:43:57;20.50;99.90
20380;DHT22;10349;48.666;8.948;2022-07-23T01:46:23;20.40;99.90
20380;DHT22;10349;48.666;8.948;2022-07-23T01:48:49;20.40;99.90
20380;DHT22;10349;48.666;8.948;2022-07-23T01:51:29;20.40;99.90
20380;DHT22;10349;48.666;8.948;2022-07-23T01:54:03;20.40;99.90
20380;DHT22;10349;48.666;8.948;2022-07-23T01:56:29;20.30;99.90
20380;DHT22;10349;48.666;8.948;2022-07-23T01:58:55;20.30;99.90
20380;DHT22;10349;48.666;8.948;2022-07-23T02:01:21;20.40;99.90
20380;DHT22;10349;48.666;8.948;2022-07-23T02:03:47;20.40;99.90
20380;DHT22;10349;48.666;8.948;2022-07-23T02:06:12;20.30;99.90
20380;DHT22;10349;48.666;8.948;2022-07-23T02:08:38;20.20;99.90
20380;DHT22;10349;48.666;8.948;2022-07-23T02:11:03;20.10;99.90
20380;DHT22;10349;48.666;8.948;2022-07-23T02:13:32;20.10;99.90
20380;DHT22;10349;48.666;8.948;2022-07-23T02:15:58;20.10;99.90
20380;DHT22;10349;48.666;8.948;2022-07-23T02:18:24;20.10;99.90
20380;DHT22;10349;48.666;8.948;2022-07-23T02:20:51;20.10;99.90
20380;DHT22;10349;48.666;8.948;2022-07-23T02:23:16;20.10;99.90
20380;DHT22;10349;48.666;8.948;2022-07-23T02:25:42;20.00;99.90
20380;DHT22;10349;48.666;8.948;2022-07-23T02:28:09;19.90;99.90
20380;DHT22;10349;48.666;8.948;2022-07-23T02:30:34;19.90;99.90
20380;DHT22;10349;48.666;8.948;2022-07-23T02:33:00;19.90;99.90
20380;DHT22;10349;48.666;8.948;2022-07-23T02:35:26;19.90;99.90
20380;DHT22;10349;48.666;8.948;2022-07-23T02:37:52;19.90;99.90
20380;DHT22;10349;48.666;8.948;2022-07-23T02:40:18;19.90;99.90
20380;DHT22;10349;48.666;8.948;2022-07-23T02:42:44;19.90;99.90
20380;DHT22;10349;48.666;8.948;2022-07-23T02:45:10;19.90;99.90
20380;DHT22;10349;48.666;8.948;2022-07-23T02:47:35;19.80;99.90
20380;DHT22;10349;48.666;8.948;2022-07-23T02:50:01;19.80;99.90
20380;DHT22;10349;48.666;8.948;2022-07-23T02:52:28;19.70;99.90
20380;DHT22;10349;48.666;8.948;2022-07-23T02:54:54;19.70;99.90
20380;DHT22;10349;48.666;8.948;2022-07-23T02:57:19;19.70;99.90
20380;DHT22;10349;48.666;8.948;2022-07-23T02:59:45;19.70;99.90
20380;DHT22;10349;48.666;8.948;2022-07-23T03:02:11;19.70;99.90
20380;DHT22;10349;48.666;8.948;2022-07-23T03:04:37;19.70;99.90
20380;DHT22;10349;48.666;8.948;2022-07-23T03:07:03;19.70;99.90
20380;DHT22;10349;48.666;8.948;2022-07-23T03:09:29;19.70;99.90
20380;DHT22;10349;48.666;8.948;2022-07-23T03:11:54;19.80;99.90
20380;DHT22;10349;48.666;8.948;2022-07-23T03:14:20;19.80;99.90
20380;DHT22;10349;48.666;8.948;2022-07-23T03:16:45;19.90;99.90
20380;DHT22;10349;48.666;8.948;2022-07-23T03:19:11;19.90;99.90
20380;DHT22;10349;48.666;8.948;2022-07-23T03:21:37;20.10;99.90
20380;DHT22;10349;48.666;8.948;2022-07-23T03:24:07;20.10;99.90
20380;DHT22;10349;48.666;8.948;2022-07-23T03:26:33;20.10;99.90
20380;DHT22;10349;48.666;8.948;2022-07-23T03:29:00;20.00;99.90
20380;DHT22;10349;48.666;8.948;2022-07-23T03:31:26;20.10;99.90
20380;DHT22;10349;48.666;8.948;2022-07-23T03:33:52;20.00;99.90
20380;DHT22;10349;48.666;8.948;2022-07-23T03:36:18;20.00;99.90
20380;DHT22;10349;48.666;8.948;2022-07-23T03:38:45;19.90;99.90
20380;DHT22;10349;48.666;8.948;2022-07-23T03:41:10;19.90;99.90
20380;DHT22;10349;48.666;8.948;2022-07-23T03:43:36;19.90;99.90
20380;DHT22;10349;48.666;8.948;2022-07-23T03:46:02;19.90;99.90
20380;DHT22;10349;48.666;8.948;2022-07-23T03:48:29;19.90;99.90
20380;DHT22;10349;48.666;8.948;2022-07-23T03:50:54;19.90;99.90
20380;DHT22;10349;48.666;8.948;2022-07-23T03:53:20;19.90;99.90
20380;DHT22;10349;48.666;8.948;2022-07-23T03:55:46;19.90;99.90
20380;DHT22;10349;48.666;8.948;2022-07-23T03:58:11;19.80;99.90
20380;DHT22;10349;48.666;8.948;2022-07-23T04:00:37;19.70;99.90
20380;DHT22;10349;48.666;8.948;2022-07-23T04:03:03;19.60;99.90
20380;DHT22;10349;48.666;8.948;2022-07-23T04:05:29;19.60;99.90
20380;DHT22;10349;48.666;8.948;2022-07-23T04:08:04;19.60;99.90
20380;DHT22;10349;48.666;8.948;2022-07-23T04:10:30;19.60;99.90
20380;DHT22;10349;48.666;8.948;2022-07-23T04:12:56;19.60;99.90
20380;DHT22;10349;48.666;8.948;2022-07-23T04:15:21;19.50;99.90
20380;DHT22;10349;48.666;8.948;2022-07-23T04:17:47;19.60;99.90
20380;DHT22;10349;48.666;8.948;2022-07-23T04:20:14;19.50;99.90
20380;DHT22;10349;48.666;8.948;2022-07-23T04:22:46;19.50;99.90
20380;DHT22;10349;48.666;8.948;2022-07-23T04:25:12;19.50;99.90
20380;DHT22;10349;48.666;8.948;2022-07-23T04:27:39;19.60;99.90
20380;DHT22;10349;48.666;8.948;2022-07-23T04:30:05;19.50;99.90
20380;DHT22;10349;48.666;8.948;2022-07-23T04:32:31;19.60;99.90
20380;DHT22;10349;48.666;8.948;2022-07-23T04:34:57;19.60;99.90
20380;DHT22;10349;48.666;8.948;2022-07-23T04:37:22;19.60;99.90
20380;DHT22;10349;48.666;8.948;2022-07-23T04:39:48;19.60;99.90
20380;DHT22;10349;48.666;8.948;2022-07-23T04:42:14;19.60;99.90
20380;DHT22;10349;48.666;8.948;2022-07-23T04:44:41;19.60;99.90
20380;DHT22;10349;48.666;8.948;2022-07-23T04:47:07;19.70;99.90
20380;DHT22;10349;48.666;8.948;2022-07-23T04:49:33;19.80;99.90
20380;DHT22;10349;48.666;8.948;2022-07-23T04:51:58;19.90;99.90
20380;DHT22;10349;48.666;8.948;2022-07-23T04:54:24;20.10;99.90
20380;DHT22;10349;48.666;8.948;2022-07-23T04:56:50;20.30;99.90
20380;DHT22;10349;48.666;8.948;2022-07-23T04:59:16;20.40;99.90
20380;DHT22;10349;48.666;8.948;2022-07-23T05:01:42;20.60;99.90
20380;DHT22;10349;48.666;8.948;2022-07-23T05:04:08;20.70;99.90
20380;DHT22;10349;48.666;8.948;2022-07-23T05:06:36;20.70;99.90
20380;DHT22;10349;48.666;8.948;2022-07-23T05:09:02;20.70;99.90
20380;DHT22;10349;48.666;8.948;2022-07-23T05:11:29;20.70;99.90
20380;DHT22;10349;48.666;8.948;2022-07-23T05:13:55;20.80;99.90
20380;DHT22;10349;48.666;8.948;2022-07-23T05:16:21;20.80;99.90
20380;DHT22;10349;48.666;8.948;2022-07-23T05:18:47;20.90;99.90
20380;DHT22;10349;48.666;8.948;2022-07-23T05:21:13;20.80;99.90
20380;DHT22;10349;48.666;8.948;2022-07-23T05:23:39;20.80;99.90
20380;DHT22;10349;48.666;8.948;2022-07-23T05:26:05;20.90;99.90
20380;DHT22;10349;48.666;8.948;2022-07-23T05:28:31;21.30;99.90
20380;DHT22;10349;48.666;8.948;2022-07-23T05:30:57;21.60;99.90
20380;DHT22;10349;48.666;8.948;2022-07-23T05:33:23;22.00;99.90
20380;DHT22;10349;48.666;8.948;2022-07-23T05:35:49;22.40;99.90
20380;DHT22;10349;48.666;8.948;2022-07-23T05:38:25;22.60;99.90
20380;DHT22;10349;48.666;8.948;2022-07-23T05:40:52;22.70;99.90
20380;DHT22;10349;48.666;8.948;2022-07-23T05:43:18;23.00;99.90
20380;DHT22;10349;48.666;8.948;2022-07-23T05:45:43;23.10;99.90
20380;DHT22;10349;48.666;8.948;2022-07-23T05:48:09;23.10;99.90
20380;DHT22;10349;48.666;8.948;2022-07-23T05:50:43;23.00;99.90
20380;DHT22;10349;48.666;8.948;2022-07-23T05:53:35;23.00;99.90
20380;DHT22;10349;48.666;8.948;2022-07-23T05:56:21;23.20;99.90
20380;DHT22;10349;48.666;8.948;2022-07-23T05:58:47;23.30;99.90
20380;DHT22;10349;48.666;8.948;2022-07-23T06:01:16;23.50;99.90
20380;DHT22;10349;48.666;8.948;2022-07-23T06:04:00;23.60;99.90
20380;DHT22;10349;48.666;8.948;2022-07-23T06:06:32;23.90;99.90
20380;DHT22;10349;48.666;8.948;2022-07-23T06:08:58;23.90;99.90
20380;DHT22;10349;48.666;8.948;2022-07-23T06:11:23;24.10;99.90
20380;DHT22;10349;48.666;8.948;2022-07-23T06:13:49;24.30;99.90
20380;DHT22;10349;48.666;8.948;2022-07-23T06:16:15;24.50;99.90
20380;DHT22;10349;48.666;8.948;2022-07-23T06:18:40;24.50;99.90
20380;DHT22;10349;48.666;8.948;2022-07-23T06:21:07;24.40;99.90
20380;DHT22;10349;48.666;8.948;2022-07-23T06:23:32;24.10;99.90
20380;DHT22;10349;48.666;8.948;2022-07-23T06:25:58;24.10;99.90
20380;DHT22;10349;48.666;8.948;2022-07-23T06:28:24;24.00;99.90
20380;DHT22;10349;48.666;8.948;2022-07-23T06:30:50;23.90;99.90
20380;DHT22;10349;48.666;8.948;2022-07-23T06:33:15;23.70;99.90
20380;DHT22;10349;48.666;8.948;2022-07-23T06:35:41;23.60;99.90
20380;DHT22;10349;48.666;8.948;2022-07-23T06:38:07;23.60;99.90
20380;DHT22;10349;48.666;8.948;2022-07-23T06:40:33;23.70;99.90
20380;DHT22;10349;48.666;8.948;2022-07-23T06:42:59;23.70;99.90
20380;DHT22;10349;48.666;8.948;2022-07-23T06:45:26;23.70;99.90
20380;DHT22;10349;48.666;8.948;2022-07-23T06:47:52;23.60;99.90
20380;DHT22;10349;48.666;8.948;2022-07-23T06:50:18;23.50;99.90
20380;DHT22;10349;48.666;8.948;2022-07-23T06:52:44;23.30;99.90
20380;DHT22;10349;48.666;8.948;2022-07-23T06:55:10;23.20;99.90
20380;DHT22;10349;48.666;8.948;2022-07-23T06:57:35;23.20;99.90
20380;DHT22;10349;48.666;8.948;2022-07-23T07:00:01;23.20;99.90
20380;DHT22;10349;48.666;8.948;2022-07-23T07:02:27;23.20;99.90
20380;DHT22;10349;48.666;8.948;2022-07-23T07:04:54;23.20;99.90
20380;DHT22;10349;48.666;8.948;2022-07-23T07:07:21;23.10;99.90
20380;DHT22;10349;48.666;8.948;2022-07-23T07:09:47;23.00;99.90
20380;DHT22;10349;48.666;8.948;2022-07-23T07:12:12;22.80;99.90
20380;DHT22;10349;48.666;8.948;2022-07-23T07:14:38;22.70;99.90
20380;DHT22;10349;48.666;8.948;2022-07-23T07:17:04;22.60;99.90
20380;DHT22;10349;48.666;8.948;2022-07-23T07:19:30;22.60;99.90
20380;DHT22;10349;48.666;8.948;2022-07-23T07:21:55;22.60;99.90
20380;DHT22;10349;48.666;8.948;2022-07-23T07:24:21;22.60;99.90
20380;DHT22;10349;48.666;8.948;2022-07-23T07:26:48;22.70;99.90
20380;DHT22;10349;48.666;8.948;2022-07-23T07:29:14;22.90;99.90
20380;DHT22;10349;48.666;8.948;2022-07-23T07:31:39;22.90;99.90
20380;DHT22;10349;48.666;8.948;2022-07-23T07:34:05;22.90;99.90
20380;DHT22;10349;48.666;8.948;2022-07-23T07:36:30;22.90;99.90
20380;DHT22;10349;48.666;8.948;2022-07-23T07:38:56;22.90;99.90
20380;DHT22;10349;48.666;8.948;2022-07-23T07:41:22;23.00;99.90
20380;DHT22;10349;48.666;8.948;2022-07-23T07:43:50;23.10;99.90
20380;DHT22;10349;48.666;8.948;2022-07-23T07:46:16;23.30;99.90
20380;DHT22;10349;48.666;8.948;2022-07-23T07:48:41;23.40;99.90
20380;DHT22;10349;48.666;8.948;2022-07-23T07:51:07;23.30;99.90
20380;DHT22;10349;48.666;8.948;2022-07-23T07:53:33;23.20;99.90
20380;DHT22;10349;48.666;8.948;2022-07-23T07:55:59;23.30;99.90
20380;DHT22;10349;48.666;8.948;2022-07-23T07:58:24;23.30;99.90
20380;DHT22;10349;48.666;8.948;2022-07-23T08:00:50;23.50;99.90
20380;DHT22;10349;48.666;8.948;2022-07-23T08:03:16;23.50;99.90
20380;DHT22;10349;48.666;8.948;2022-07-23T08:05:42;23.50;99.90
20380;DHT22;10349;48.666;8.948;2022-07-23T08:08:08;23.50;99.90
20380;DHT22;10349;48.666;8.948;2022-07-23T08:10:35;23.30;99.90
20380;DHT22;10349;48.666;8.948;2022-07-23T08:13:01;23.30;99.90
20380;DHT22;10349;48.666;8.948;2022-07-23T08:15:29;23.30;99.90
20380;DHT22;10349;48.666;8.948;2022-07-23T08:17:55;23.30;99.90
20380;DHT22;10349;48.666;8.948;2022-07-23T08:20:22;23.30;99.90
20380;DHT22;10349;48.666;8.948;2022-07-23T08:23:01;23.50;99.90
20380;DHT22;10349;48.666;8.948;2022-07-23T08:25:33;23.70;99.90
20380;DHT22;10349;48.666;8.948;2022-07-23T08:28:01;23.90;99.90
20380;DHT22;10349;48.666;8.948;2022-07-23T08:30:27;24.00;99.90
20380;DHT22;10349;48.666;8.948;2022-07-23T08:33:00;24.10;99.90
20380;DHT22;10349;48.666;8.948;2022-07-23T08:35:31;24.20;99.90
20380;DHT22;10349;48.666;8.948;2022-07-23T08:37:58;24.20;99.90
20380;DHT22;10349;48.666;8.948;2022-07-23T08:40:29;24.10;99.90
20380;DHT22;10349;48.666;8.948;2022-07-23T08:42:55;24.10;99.90
20380;DHT22;10349;48.666;8.948;2022-07-23T08:45:23;24.10;99.90
20380;DHT22;10349;48.666;8.948;2022-07-23T08:47:54;24.00;99.90
20380;DHT22;10349;48.666;8.948;2022-07-23T08:50:21;23.90;99.90
20380;DHT22;10349;48.666;8.948;2022-07-23T08:52:52;23.80;99.90
20380;DHT22;10349;48.666;8.948;2022-07-23T08:55:20;23.80;99.90
20380;DHT22;10349;48.666;8.948;2022-07-23T08:57:48;23.80;99.90
20380;DHT22;10349;48.666;8.948;2022-07-23T09:00:15;23.80;99.90
20380;DHT22;10349;48.666;8.948;2022-07-23T09:02:43;23.70;99.90
20380;DHT22;10349;48.666;8.948;2022-07-23T09:05:10;23.70;99.90
20380;DHT22;10349;48.666;8.948;2022-07-23T09:08:06;23.80;99.90
20380;DHT22;10349;48.666;8.948;2022-07-23T09:19:02;24.30;99.90
20380;DHT22;10349;48.666;8.948;2022-07-23T09:21:34;24.30;99.90
20380;DHT22;10349;48.666;8.948;2022-07-23T09:24:02;24.50;99.90
20380;DHT22;10349;48.666;8.948;2022-07-23T09:26:31;24.40;99.90
20380;DHT22;10349;48.666;8.948;2022-07-23T09:31:51;24.50;99.90
20380;DHT22;10349;48.666;8.948;2022-07-23T09:34:20;24.50;99.90
20380;DHT22;10349;48.666;8.948;2022-07-23T09:36:47;24.50;99.90
20380;DHT22;10349;48.666;8.948;2022-07-23T09:39:14;24.70;99.90
20380;DHT22;10349;48.666;8.948;2022-07-23T09:41:47;25.00;99.90
20380;DHT22;10349;48.666;8.948;2022-07-23T09:44:18;25.30;99.90
20380;DHT22;10349;48.666;8.948;2022-07-23T09:46:46;25.50;99.90
20380;DHT22;10349;48.666;8.948;2022-07-23T09:49:14;25.70;99.90
20380;DHT22;10349;48.666;8.948;2022-07-23T09:51:58;25.90;99.90
20380;DHT22;10349;48.666;8.948;2022-07-23T09:56:54;26.30;99.90
20380;DHT22;10349;48.666;8.948;2022-07-23T09:59:27;26.40;99.90
20380;DHT22;10349;48.666;8.948;2022-07-23T10:01:55;26.50;99.90
20380;DHT22;10349;48.666;8.948;2022-07-23T10:04:23;26.70;99.90
20380;DHT22;10349;48.666;8.948;2022-07-23T10:07:13;26.50;99.90
20380;DHT22;10349;48.666;8.948;2022-07-23T10:09:52;26.60;99.90
20380;DHT22;10349;48.666;8.948;2022-07-23T10:12:37;26.80;99.90
20380;DHT22;10349;48.666;8.948;2022-07-23T10:15:12;27.00;99.90
20380;DHT22;10349;48.666;8.948;2022-07-23T10:17:38;27.10;99.90
20380;DHT22;10349;48.666;8.948;2022-07-23T10:20:04;27.10;99.90
20380;DHT22;10349;48.666;8.948;2022-07-23T10:22:37;27.20;99.90
20380;DHT22;10349;48.666;8.948;2022-07-23T10:25:32;27.30;99.90
20380;DHT22;10349;48.666;8.948;2022-07-23T10:31:49;27.30;99.90
20380;DHT22;10349;48.666;8.948;2022-07-23T10:36:56;27.60;99.90
20380;DHT22;10349;48.666;8.948;2022-07-23T10:42:14;27.90;99.90
20380;DHT22;10349;48.666;8.948;2022-07-23T10:44:50;28.00;99.90
20380;DHT22;10349;48.666;8.948;2022-07-23T10:47:29;28.10;99.90
20380;DHT22;10349;48.666;8.948;2022-07-23T10:50:31;28.10;99.90
20380;DHT22;10349;48.666;8.948;2022-07-23T10:58:05;27.70;99.90
20380;DHT22;10349;48.666;8.948;2022-07-23T11:00:35;27.90;99.90
20380;DHT22;10349;48.666;8.948;2022-07-23T11:03:28;28.10;99.90
20380;DHT22;10349;48.666;8.948;2022-07-23T11:05:48;28.40;99.90
20380;DHT22;10349;48.666;8.948;2022-07-23T11:08:15;28.80;99.90
20380;DHT22;10349;48.666;8.948;2022-07-23T11:10:53;29.10;99.90
20380;DHT22;10349;48.666;8.948;2022-07-23T11:24:00;28.10;99.90
20380;DHT22;10349;48.666;8.948;2022-07-23T11:32:23;28.90;99.90
20380;DHT22;10349;48.666;8.948;2022-07-23T11:34:50;28.70;99.90
20380;DHT22;10349;48.666;8.948;2022-07-23T11:37:36;28.50;99.90
20380;DHT22;10349;48.666;8.948;2022-07-23T11:40:13;28.50;99.90
20380;DHT22;10349;48.666;8.948;2022-07-23T11:42:50;28.40;99.90
20380;DHT22;10349;48.666;8.948;2022-07-23T11:45:16;28.30;99.90
20380;DHT22;10349;48.666;8.948;2022-07-23T11:47:42;28.20;99.90
20380;DHT22;10349;48.666;8.948;2022-07-23T11:50:08;28.20;99.90
20380;DHT22;10349;48.666;8.948;2022-07-23T11:52:34;28.10;99.90
20380;DHT22;10349;48.666;8.948;2022-07-23T11:55:09;28.00;99.90
20380;DHT22;10349;48.666;8.948;2022-07-23T11:57:38;27.90;99.90
20380;DHT22;10349;48.666;8.948;2022-07-23T12:00:17;27.70;99.90
20380;DHT22;10349;48.666;8.948;2022-07-23T12:02:46;27.70;99.90
20380;DHT22;10349;48.666;8.948;2022-07-23T12:05:17;27.90;99.90
20380;DHT22;10349;48.666;8.948;2022-07-23T12:07:47;28.20;99.90
20380;DHT22;10349;48.666;8.948;2022-07-23T12:10:18;28.50;99.90
20380;DHT22;10349;48.666;8.948;2022-07-23T12:12:47;28.60;99.90
20380;DHT22;10349;48.666;8.948;2022-07-23T12:15:16;28.30;99.90
20380;DHT22;10349;48.666;8.948;2022-07-23T12:17:44;28.20;99.90
20380;DHT22;10349;48.666;8.948;2022-07-23T12:20:15;28.40;99.90
20380;DHT22;10349;48.666;8.948;2022-07-23T12:22:44;28.20;99.90
20380;DHT22;10349;48.666;8.948;2022-07-23T12:25:12;28.20;99.90
20380;DHT22;10349;48.666;8.948;2022-07-23T12:27:39;27.90;99.90
20380;DHT22;10349;48.666;8.948;2022-07-23T12:30:23;27.90;99.90
20380;DHT22;10349;48.666;8.948;2022-07-23T12:32:55;28.00;99.90
20380;DHT22;10349;48.666;8.948;2022-07-23T12:35:23;28.30;99.90
20380;DHT22;10349;48.666;8.948;2022-07-23T12:37:51;28.70;99.90
20380;DHT22;10349;48.666;8.948;2022-07-23T12:45:27;29.40;99.90
20380;DHT22;10349;48.666;8.948;2022-07-23T12:50:42;28.90;99.90
20380;DHT22;10349;48.666;8.948;2022-07-23T12:53:18;28.90;99.90
20380;DHT22;10349;48.666;8.948;2022-07-23T12:55:46;28.60;99.90
20380;DHT22;10349;48.666;8.948;2022-07-23T12:58:16;28.60;99.90
20380;DHT22;10349;48.666;8.948;2022-07-23T13:00:52;28.90;99.90
20380;DHT22;10349;48.666;8.948;2022-07-23T13:05:53;29.30;99.90
20380;DHT22;10349;48.666;8.948;2022-07-23T13:08:20;29.10;99.90
20380;DHT22;10349;48.666;8.948;2022-07-23T13:10:46;29.00;99.90
20380;DHT22;10349;48.666;8.948;2022-07-23T13:13:14;29.30;99.90
20380;DHT22;10349;48.666;8.948;2022-07-23T13:15:40;29.20;99.90
20380;DHT22;10349;48.666;8.948;2022-07-23T13:18:06;29.10;99.90
20380;DHT22;10349;48.666;8.948;2022-07-23T13:20:31;28.90;99.90
20380;DHT22;10349;48.666;8.948;2022-07-23T13:22:59;28.50;99.90
20380;DHT22;10349;48.666;8.948;2022-07-23T13:25:26;28.20;99.90
20380;DHT22;10349;48.666;8.948;2022-07-23T13:27:52;28.20;99.90
20380;DHT22;10349;48.666;8.948;2022-07-23T13:30:18;28.20;99.90
20380;DHT22;10349;48.666;8.948;2022-07-23T13:32:44;27.80;99.90
20380;DHT22;10349;48.666;8.948;2022-07-23T13:35:10;27.60;99.90
20380;DHT22;10349;48.666;8.948;2022-07-23T13:37:37;27.50;99.90
20380;DHT22;10349;48.666;8.948;2022-07-23T13:40:03;27.50;99.90
20380;DHT22;10349;48.666;8.948;2022-07-23T13:42:29;27.50;99.90
20380;DHT22;10349;48.666;8.948;2022-07-23T13:44:55;27.60;99.90
20380;DHT22;10349;48.666;8.948;2022-07-23T13:47:20;27.80;99.90
20380;DHT22;10349;48.666;8.948;2022-07-23T13:49:46;27.70;99.90
20380;DHT22;10349;48.666;8.948;2022-07-23T13:52:12;27.90;99.90
20380;DHT22;10349;48.666;8.948;2022-07-23T13:54:37;27.80;99.90
20380;DHT22;10349;48.666;8.948;2022-07-23T13:57:03;27.70;99.90
20380;DHT22;10349;48.666;8.948;2022-07-23T13:59:29;27.70;99.90
20380;DHT22;10349;48.666;8.948;2022-07-23T14:01:54;27.50;99.90
20380;DHT22;10349;48.666;8.948;2022-07-23T14:04:21;27.40;99.90
20380;DHT22;10349;48.666;8.948;2022-07-23T14:06:47;27.40;99.90
20380;DHT22;10349;48.666;8.948;2022-07-23T14:09:12;27.40;99.90
20380;DHT22;10349;48.666;8.948;2022-07-23T14:11:38;27.40;99.90
20380;DHT22;10349;48.666;8.948;2022-07-23T14:14:04;27.40;99.90
20380;DHT22;10349;48.666;8.948;2022-07-23T14:16:30;27.60;99.90
20380;DHT22;10349;48.666;8.948;2022-07-23T14:18:56;27.90;99.90
20380;DHT22;10349;48.666;8.948;2022-07-23T14:21:22;28.20;99.90
20380;DHT22;10349;48.666;8.948;2022-07-23T14:23:47;28.50;99.90
20380;DHT22;10349;48.666;8.948;2022-07-23T14:26:13;28.50;99.90
20380;DHT22;10349;48.666;8.948;2022-07-23T14:28:39;28.70;99.90
20380;DHT22;10349;48.666;8.948;2022-07-23T14:31:04;28.70;99.90
20380;DHT22;10349;48.666;8.948;2022-07-23T14:33:30;28.60;99.90
20380;DHT22;10349;48.666;8.948;2022-07-23T14:35:56;28.50;99.90
20380;DHT22;10349;48.666;8.948;2022-07-23T14:38:21;28.30;99.90
20380;DHT22;10349;48.666;8.948;2022-07-23T14:40:47;28.20;99.90
20380;DHT22;10349;48.666;8.948;2022-07-23T14:43:13;28.20;99.90
20380;DHT22;10349;48.666;8.948;2022-07-23T14:45:39;28.20;99.90
20380;DHT22;10349;48.666;8.948;2022-07-23T14:48:04;28.20;99.90
20380;DHT22;10349;48.666;8.948;2022-07-23T14:50:30;28.10;99.90
20380;DHT22;10349;48.666;8.948;2022-07-23T14:52:56;28.20;99.90
20380;DHT22;10349;48.666;8.948;2022-07-23T14:55:22;28.30;99.90
20380;DHT22;10349;48.666;8.948;2022-07-23T14:57:47;28.40;99.90
20380;DHT22;10349;48.666;8.948;2022-07-23T15:00:13;28.40;99.90
20380;DHT22;10349;48.666;8.948;2022-07-23T15:02:39;28.60;99.90
20380;DHT22;10349;48.666;8.948;2022-07-23T15:05:05;28.80;99.90
20380;DHT22;10349;48.666;8.948;2022-07-23T15:07:31;29.10;99.90
20380;DHT22;10349;48.666;8.948;2022-07-23T15:09:57;29.30;99.90
20380;DHT22;10349;48.666;8.948;2022-07-23T15:12:23;29.40;99.90
20380;DHT22;10349;48.666;8.948;2022-07-23T15:14:49;29.50;99.90
20380;DHT22;10349;48.666;8.948;2022-07-23T15:17:15;29.30;99.90
20380;DHT22;10349;48.666;8.948;2022-07-23T15:19:40;28.90;99.90
20380;DHT22;10349;48.666;8.948;2022-07-23T15:22:06;28.90;99.90
20380;DHT22;10349;48.666;8.948;2022-07-23T15:24:32;29.10;99.90
20380;DHT22;10349;48.666;8.948;2022-07-23T15:26:58;29.30;99.90
20380;DHT22;10349;48.666;8.948;2022-07-23T15:29:23;29.50;99.90
20380;DHT22;10349;48.666;8.948;2022-07-23T15:31:49;29.70;99.90
20380;DHT22;10349;48.666;8.948;2022-07-23T15:34:15;29.60;99.90
20380;DHT22;10349;48.666;8.948;2022-07-23T15:36:41;29.50;99.90
20380;DHT22;10349;48.666;8.948;2022-07-23T15:39:07;29.30;99.90
20380;DHT22;10349;48.666;8.948;2022-07-23T15:41:33;29.30;99.90
20380;DHT22;10349;48.666;8.948;2022-07-23T15:43:59;29.30;99.90
20380;DHT22;10349;48.666;8.948;2022-07-23T15:46:25;29.20;99.90
20380;DHT22;10349;48.666;8.948;2022-07-23T15:48:51;29.10;99.90
20380;DHT22;10349;48.666;8.948;2022-07-23T15:51:17;29.00;99.90
20380;DHT22;10349;48.666;8.948;2022-07-23T15:53:42;28.90;99.90
20380;DHT22;10349;48.666;8.948;2022-07-23T15:56:09;29.00;99.90
20380;DHT22;10349;48.666;8.948;2022-07-23T15:58:36;28.90;99.90
20380;DHT22;10349;48.666;8.948;2022-07-23T16:01:02;29.20;99.90
20380;DHT22;10349;48.666;8.948;2022-07-23T16:03:29;29.40;99.90
20380;DHT22;10349;48.666;8.948;2022-07-23T16:05:56;29.50;99.90
20380;DHT22;10349;48.666;8.948;2022-07-23T16:08:21;29.60;99.90
20380;DHT22;10349;48.666;8.948;2022-07-23T16:10:47;29.60;99.90
20380;DHT22;10349;48.666;8.948;2022-07-23T16:13:13;29.50;99.90
20380;DHT22;10349;48.666;8.948;2022-07-23T16:15:39;29.50;99.90
20380;DHT22;10349;48.666;8.948;2022-07-23T16:18:07;29.40;99.90
20380;DHT22;10349;48.666;8.948;2022-07-23T16:20:35;29.30;99.90
20380;DHT22;10349;48.666;8.948;2022-07-23T16:23:00;29.40;99.90
20380;DHT22;10349;48.666;8.948;2022-07-23T16:25:26;29.10;99.90
20380;DHT22;10349;48.666;8.948;2022-07-23T16:27:52;29.00;99.90